Time;durP1;ratioP1;P1;durP2;ratioP2;P2;SDS_P1;SDS_P2;PMS_P1;PMS_P2;Temp;Humidity;BMP_temperature;BMP_pressure;BME280_temperature;BME280_humidity;BME280_pressure;Samples;Min_cycle;Max_cycle;Signal;HPM_P1;HPM_P2
2022/10/17 00:01:28;;;;;;;23.10;17.40;;;;;;;14.39;79.86;100731.73;214546;1274;140722;-72
2022/10/17 00:06:35;;;;;;;26.60;19.40;;;;;;;14.40;79.69;100737.13;214931;1272;162372;-72
2022/10/17 00:11:40;;;;;;;19.80;16.60;;;;;;;14.38;79.53;100738.42;215950;1273;141716;-72
2022/10/17 00:16:45;;;;;;;25.70;18.80;;;;;;;14.29;79.52;100741.52;215749;1274;141406;-72
2022/10/17 00:21:49;;;;;;;21.60;16.90;;;;;;;14.32;79.58;100747.20;215011;1274;141043;-72
2022/10/17 00:26:53;;;;;;;22.90;18.30;;;;;;;14.25;79.42;100748.55;214843;1272;140833;-72
2022/10/17 00:31:59;;;;;;;23.90;16.60;;;;;;;14.16;79.61;100751.39;215830;1274;140156;-72
2022/10/17 00:37:03;;;;;;;26.90;19.00;;;;;;;14.09;79.65;100752.79;215777;1274;141358;-71
2022/10/17 00:42:11;;;;;;;29.70;19.90;;;;;;;14.14;79.74;100746.63;216077;1272;140975;-72
2022/10/17 00:47:21;;;;;;;25.80;18.80;;;;;;;14.15;79.86;100740.42;215929;1274;140631;-71
2022/10/17 00:52:30;;;;;;;23.30;18.70;;;;;;;14.19;79.98;100746.27;215944;1273;140012;-71
2022/10/17 00:57:36;;;;;;;22.40;17.70;;;;;;;14.15;79.48;100748.31;215998;1274;140195;-70
2022/10/17 01:02:40;;;;;;;23.70;17.00;;;;;;;14.10;79.15;100744.17;215940;1274;141905;-68
2022/10/17 01:07:47;;;;;;;24.50;18.60;;;;;;;14.08;79.28;100745.74;216020;1273;140994;-69
2022/10/17 01:13:06;;;;;;;24.80;18.90;;;;;;;14.00;79.12;100747.71;215997;1272;141848;-72
2022/10/17 01:18:19;;;;;;;44.30;17.70;;;;;;;13.89;79.11;100742.67;215840;1274;141072;-71
2022/10/17 01:23:37;;;;;;;24.00;17.60;;;;;;;13.76;79.22;100733.41;216006;1274;141741;-71
2022/10/17 01:28:59;;;;;;;27.10;16.40;;;;;;;13.67;79.38;100721.52;215758;1276;140913;-70
2022/10/17 01:34:21;;;;;;;24.40;17.20;;;;;;;13.57;79.61;100726.94;215898;1274;140707;-71
2022/10/17 01:40:02;;;;;;;27.70;18.70;;;;;;;13.51;79.99;100741.98;213883;1274;140179;-72
2022/10/17 01:45:18;;;;;;;25.10;18.70;;;;;;;13.56;80.18;100752.34;215884;1274;140833;-72
2022/10/17 01:50:34;;;;;;;21.10;17.20;;;;;;;13.55;80.52;100756.30;215971;1272;141188;-73
2022/10/17 01:55:40;;;;;;;;;;;;;;;13.52;80.39;100745.23;215931;1274;140753;-73
2022/10/17 02:00:47;;;;;;;23.40;16.40;;;;;;;13.43;80.46;100741.10;215643;1274;126813;-71
2022/10/17 02:05:52;;;;;;;28.70;18.40;;;;;;;13.35;80.47;100735.11;216076;1274;141313;-72
2022/10/17 02:11:10;;;;;;;29.20;19.90;;;;;;;13.31;80.63;100732.20;215985;1273;140883;-74
2022/10/17 02:16:46;;;;;;;;;;;;;;;13.31;80.68;100748.44;214898;1274;141644;-71
2022/10/17 02:22:31;;;;;;;26.50;18.80;;;;;;;13.28;80.63;100760.30;215748;1274;127601;-70
2022/10/17 02:27:46;;;;;;;24.30;16.20;;;;;;;13.31;80.82;100767.35;215233;1274;141224;-72
2022/10/17 02:33:02;;;;;;;27.70;19.60;;;;;;;13.26;80.42;100773.27;215888;1274;140574;-72
2022/10/17 02:38:11;;;;;;;29.40;20.50;;;;;;;13.20;80.53;100777.58;215302;1276;141005;-72
2022/10/17 02:43:16;;;;;;;24.80;17.80;;;;;;;13.16;80.75;100768.11;215872;1274;142092;-72
2022/10/17 02:48:41;;;;;;;23.10;16.70;;;;;;;13.08;80.75;100759.23;215608;1273;142547;-71
2022/10/17 02:54:00;;;;;;;22.30;16.50;;;;;;;13.08;81.12;100777.80;215764;1274;141808;-72
2022/10/17 02:59:08;;;;;;;25.20;19.10;;;;;;;13.13;81.04;100784.20;216047;1274;140872;-72
2022/10/17 03:04:13;;;;;;;28.10;19.20;;;;;;;13.14;80.84;100784.88;215971;1273;141535;-72
2022/10/17 03:09:17;;;;;;;24.00;18.00;;;;;;;13.09;80.87;100781.24;216065;1274;140866;-71
2022/10/17 03:14:22;;;;;;;23.30;18.30;;;;;;;12.96;80.91;100778.35;215902;1274;140597;-71
2022/10/17 03:19:26;;;;;;;22.40;15.90;;;;;;;12.92;80.99;100785.40;216014;1274;140702;-72
2022/10/17 03:24:30;;;;;;;24.00;15.90;;;;;;;12.87;80.99;100791.52;215989;1274;141929;-72
2022/10/17 03:29:35;;;;;;;28.60;18.80;;;;;;;12.83;80.78;100790.73;214741;1274;144014;-72
2022/10/17 03:34:39;;;;;;;21.50;15.60;;;;;;;12.78;80.69;100796.28;215894;1274;142370;-72
2022/10/17 03:39:44;;;;;;;23.30;19.30;;;;;;;12.69;80.76;100787.36;215961;1273;142878;-72
2022/10/17 03:44:48;;;;;;;27.00;19.00;;;;;;;12.59;80.73;100785.11;215933;1273;141329;-72
2022/10/17 03:49:52;;;;;;;26.30;20.10;;;;;;;12.51;80.79;100799.90;215795;1274;141707;-72
2022/10/17 03:54:56;;;;;;;25.40;19.10;;;;;;;12.46;80.88;100803.95;215878;1272;143082;-72
2022/10/17 04:00:01;;;;;;;22.00;17.10;;;;;;;12.44;80.71;100796.98;213751;1274;141704;-72
2022/10/17 04:05:06;;;;;;;29.50;19.10;;;;;;;12.30;80.80;100801.86;215301;1274;140572;-73
2022/10/17 04:10:09;;;;;;;30.30;18.80;;;;;;;12.27;81.45;100820.15;214524;1274;141660;-70
2022/10/17 04:15:14;;;;;;;30.30;17.50;;;;;;;12.34;82.09;100832.27;215780;1273;141555;-72
2022/10/17 04:20:18;;;;;;;39.30;19.90;;;;;;;12.48;81.68;100836.73;214717;1274;141398;-74
2022/10/17 04:25:22;;;;;;;27.10;19.20;;;;;;;12.58;81.82;100828.91;216022;1274;140700;-73
2022/10/17 04:30:25;;;;;;;26.50;16.90;;;;;;;12.45;80.93;100823.34;215872;1274;140120;-72
2022/10/17 04:35:29;;;;;;;20.60;15.40;;;;;;;12.32;80.75;100819.61;216033;1273;140988;-72
2022/10/17 04:40:32;;;;;;;17.70;14.80;;;;;;;12.16;80.59;100810.73;215423;1274;141283;-72
2022/10/17 04:45:36;;;;;;;26.10;17.50;;;;;;;12.05;80.83;100808.83;215642;1274;141120;-72
2022/10/17 04:50:40;;;;;;;18.80;15.00;;;;;;;11.99;80.96;100810.11;215244;1274;140549;-73
2022/10/17 04:55:44;;;;;;;21.30;14.90;;;;;;;11.97;81.82;100808.97;215814;1274;140165;-72
2022/10/17 05:00:48;;;;;;;21.20;16.40;;;;;;;12.00;81.64;100811.74;215818;1274;142292;-70
2022/10/17 05:05:51;;;;;;;23.80;17.20;;;;;;;12.02;81.96;100814.11;215814;1274;140591;-71
2022/10/17 05:10:55;;;;;;;20.40;16.80;;;;;;;12.03;81.99;100822.82;215607;1274;142001;-69
2022/10/17 05:15:59;;;;;;;25.50;16.00;;;;;;;12.11;82.24;100837.95;215831;1274;142375;-81
2022/10/17 05:21:03;;;;;;;24.90;15.60;;;;;;;12.24;82.11;100850.12;214909;1276;141599;-79
2022/10/17 05:26:08;;;;;;;24.40;16.20;;;;;;;12.30;81.75;100859.61;216056;1274;141630;-78
2022/10/17 05:31:13;;;;;;;26.90;15.90;;;;;;;12.27;81.13;100861.53;216197;1273;140544;-72
2022/10/17 05:36:17;;;;;;;21.60;17.10;;;;;;;12.20;80.77;100876.41;215963;1272;141150;-76
2022/10/17 05:41:21;;;;;;;24.90;16.10;;;;;;;12.22;80.64;100887.05;216075;1274;141053;-72
2022/10/17 05:46:24;;;;;;;16.20;13.60;;;;;;;12.22;80.67;100885.77;215718;1274;142514;-72
2022/10/17 05:51:28;;;;;;;19.80;15.50;;;;;;;12.09;80.13;100873.15;214957;1274;972851;-72
2022/10/17 05:56:33;;;;;;;18.70;15.30;;;;;;;11.98;80.66;100872.65;215514;1274;140914;-71
2022/10/17 06:01:38;;;;;;;21.10;14.70;;;;;;;12.01;81.01;100876.86;214628;1272;141419;-70
2022/10/17 06:06:44;;;;;;;20.30;16.40;;;;;;;12.11;81.34;100874.25;215997;1273;141526;-71
2022/10/17 06:11:48;;;;;;;23.00;17.30;;;;;;;12.28;81.36;100869.55;215854;1273;141394;-70
2022/10/17 06:16:52;;;;;;;23.20;17.70;;;;;;;12.49;81.89;100871.67;216009;1273;141889;-71
2022/10/17 06:21:56;;;;;;;19.80;15.50;;;;;;;12.71;82.10;100885.55;216053;1273;140338;-70
2022/10/17 06:27:00;;;;;;;26.90;17.70;;;;;;;12.92;82.01;100898.55;214907;1274;142711;-70
2022/10/17 06:32:04;;;;;;;21.60;15.80;;;;;;;13.17;81.65;100901.95;215720;1274;141070;-67
2022/10/17 06:37:10;;;;;;;28.60;16.60;;;;;;;13.51;81.81;100908.11;216039;1273;143076;-68
2022/10/17 06:42:15;;;;;;;19.50;15.70;;;;;;;13.84;81.69;100912.95;215138;1274;141406;-69
2022/10/17 06:47:19;;;;;;;17.60;13.70;;;;;;;14.22;81.37;100922.58;214839;1274;140708;-69
2022/10/17 06:52:24;;;;;;;11.00;9.80;;;;;;;14.59;80.90;100921.90;215929;1274;141469;-69
2022/10/17 06:57:28;;;;;;;20.40;14.90;;;;;;;15.15;80.28;100913.45;215955;1274;140745;-69
2022/10/17 07:02:33;;;;;;;15.10;12.70;;;;;;;15.94;79.76;100915.41;215898;1274;140961;-70
2022/10/17 07:07:38;;;;;;;18.80;14.60;;;;;;;16.69;78.50;100912.61;215829;1274;142150;-70
2022/10/17 07:12:47;;;;;;;20.70;14.40;;;;;;;16.93;77.06;100912.41;215935;1275;142356;-72
2022/10/17 07:17:52;;;;;;;15.20;13.60;;;;;;;17.14;76.86;100913.41;216112;1274;140981;-71
2022/10/17 07:22:57;;;;;;;14.90;13.10;;;;;;;17.50;76.22;100921.94;216022;1274;141862;-70
2022/10/17 07:28:01;;;;;;;25.10;16.30;;;;;;;17.77;75.80;100934.86;215833;1274;140362;-70
2022/10/17 07:33:06;;;;;;;14.30;12.40;;;;;;;17.97;74.90;100938.48;215472;1276;141760;-71
2022/10/17 07:38:11;;;;;;;15.10;13.20;;;;;;;18.07;74.36;100949.04;215725;1274;140262;-69
2022/10/17 07:43:16;;;;;;;15.20;12.20;;;;;;;17.98;73.61;100952.24;215935;1274;140380;-69
2022/10/17 07:48:21;;;;;;;17.20;13.20;;;;;;;18.04;73.80;100955.48;215874;1274;140620;-70
2022/10/17 07:53:26;;;;;;;16.70;13.10;;;;;;;18.21;73.48;100960.89;215810;1274;141957;-68
2022/10/17 07:58:31;;;;;;;14.40;13.00;;;;;;;18.30;72.81;100965.04;215997;1274;139672;-68
2022/10/17 08:03:36;;;;;;;17.90;13.70;;;;;;;18.35;72.73;100960.86;215964;1273;140221;-68
2022/10/17 08:08:43;;;;;;;16.50;13.60;;;;;;;18.50;72.47;100967.20;215993;1273;141488;-68
2022/10/17 08:13:48;;;;;;;17.90;12.70;;;;;;;18.64;72.15;100969.34;214679;1274;141885;-67
2022/10/17 08:18:53;;;;;;;14.40;12.80;;;;;;;18.80;72.21;100969.52;215038;1274;140175;-67
2022/10/17 08:23:58;;;;;;;19.50;15.70;;;;;;;19.04;72.02;100968.39;215382;1272;140302;-67
2022/10/17 08:29:02;;;;;;;17.60;13.80;;;;;;;19.24;71.42;100966.57;215893;1274;140850;-68
2022/10/17 08:34:06;;;;;;;16.90;12.90;;;;;;;19.42;70.79;100967.79;215899;1274;141033;-67
2022/10/17 08:39:11;;;;;;;17.50;12.30;;;;;;;19.40;69.90;100966.48;216010;1273;139943;-69
2022/10/17 08:44:47;;;;;;;18.20;14.00;;;;;;;19.35;69.63;100964.99;214809;1273;140431;-69
2022/10/17 08:49:54;;;;;;;22.20;13.60;;;;;;;19.40;69.52;100964.21;215114;1274;232256;-71
2022/10/17 08:54:59;;;;;;;19.30;13.90;;;;;;;19.68;69.65;100967.55;216018;1273;142445;-71
2022/10/17 09:00:16;;;;;;;15.70;13.50;;;;;;;19.77;68.56;100968.84;215887;1274;141974;-71
2022/10/17 09:05:48;;;;;;;28.10;14.60;;;;;;;19.81;68.70;100968.25;214646;1274;140321;-71
2022/10/17 09:11:30;;;;;;;24.00;15.00;;;;;;;20.02;68.55;100962.98;215657;1274;140233;-71
2022/10/17 09:17:07;;;;;;;15.40;12.50;;;;;;;20.23;68.00;100960.69;215459;1276;141890;-72
2022/10/17 09:22:24;;;;;;;18.60;15.40;;;;;;;20.41;67.43;100952.41;216104;1273;142905;-72
2022/10/17 09:27:48;;;;;;;19.40;15.60;;;;;;;20.57;67.43;100954.46;216119;1274;141074;-72
2022/10/17 09:32:53;;;;;;;16.70;14.70;;;;;;;20.83;67.16;100956.29;216100;1272;140855;-71
2022/10/17 09:37:58;;;;;;;23.10;16.60;;;;;;;20.97;66.49;100955.90;215917;1274;140737;-71
2022/10/17 09:43:06;;;;;;;19.30;15.90;;;;;;;21.22;66.21;100958.52;216161;1274;141331;-71
2022/10/17 09:48:29;;;;;;;17.20;15.60;;;;;;;21.39;66.16;100953.74;215709;1276;143052;-70
2022/10/17 09:53:38;;;;;;;14.60;12.60;;;;;;;21.82;66.15;100954.20;216089;1274;140161;-70
2022/10/17 09:58:56;;;;;;;20.20;16.30;;;;;;;21.97;64.73;100960.53;215804;1274;141728;-70
2022/10/17 10:04:11;;;;;;;18.40;14.30;;;;;;;22.10;64.68;100951.29;215909;1274;225817;-71
2022/10/17 10:09:23;;;;;;;20.00;15.70;;;;;;;22.35;64.30;100945.40;215934;1274;141196;-71
2022/10/17 10:14:39;;;;;;;14.60;13.10;;;;;;;22.46;63.60;100939.55;216085;1274;140898;-72
2022/10/17 10:19:50;;;;;;;17.20;14.70;;;;;;;22.51;63.16;100938.44;215863;1274;140712;-71
2022/10/17 10:25:17;;;;;;;19.10;15.80;;;;;;;22.53;62.63;100933.20;216000;1274;141221;-72
2022/10/17 10:30:27;;;;;;;17.50;15.30;;;;;;;22.59;62.39;100933.59;214444;1274;143361;-73
2022/10/17 10:35:34;;;;;;;20.50;16.00;;;;;;;22.57;62.08;100933.29;215130;1274;141916;-71
2022/10/17 10:40:46;;;;;;;18.10;15.00;;;;;;;22.65;61.75;100934.88;215319;1273;154010;-71
2022/10/17 10:45:52;;;;;;;20.60;15.20;;;;;;;22.70;61.52;100937.55;215970;1273;141227;-69
2022/10/17 10:51:09;;;;;;;19.80;16.10;;;;;;;22.91;61.48;100938.52;215959;1274;140301;-69
2022/10/17 10:56:14;;;;;;;16.50;14.80;;;;;;;23.04;61.02;100938.00;215600;1273;139817;-69
2022/10/17 11:01:37;;;;;;;17.50;14.10;;;;;;;23.08;60.85;100936.33;215409;1273;140112;-70
2022/10/17 11:06:44;;;;;;;23.20;15.90;;;;;;;23.22;60.73;100938.02;215816;1274;140290;-70
2022/10/17 11:12:18;;;;;;;22.30;15.80;;;;;;;23.42;60.32;100926.85;216152;1273;140245;-70
2022/10/17 11:17:42;;;;;;;16.90;14.90;;;;;;;23.63;60.15;100923.87;216222;1273;140887;-70
2022/10/17 11:22:57;;;;;;;13.70;12.50;;;;;;;23.85;59.85;100925.27;216132;1273;140877;-71
2022/10/17 11:28:09;;;;;;;16.30;14.40;;;;;;;23.91;59.47;100931.05;215819;1273;140236;-70
2022/10/17 11:33:22;;;;;;;18.50;14.00;;;;;;;23.98;58.99;100921.54;215582;1274;141879;-70
2022/10/17 11:38:40;;;;;;;12.60;11.30;;;;;;;23.96;58.40;100909.80;216087;1273;140382;-77
2022/10/17 11:43:51;;;;;;;15.30;12.80;;;;;;;23.82;57.90;100910.92;215857;1274;141179;-75
2022/10/17 11:49:33;;;;;;;16.30;14.30;;;;;;;23.72;57.99;100907.96;216103;1273;140938;-74
2022/10/17 11:55:00;;;;;;;17.50;14.00;;;;;;;23.81;58.11;100908.34;215921;1274;140476;-71
2022/10/17 12:00:23;;;;;;;14.10;12.40;;;;;;;23.84;57.78;100907.73;215972;1274;139745;-68
2022/10/17 12:06:05;;;;;;;15.80;12.70;;;;;;;23.94;58.12;100907.04;215773;1274;141320;-69
2022/10/17 12:11:28;;;;;;;13.80;11.90;;;;;;;23.99;57.59;100912.20;215552;1274;139935;-68
2022/10/17 12:16:40;;;;;;;18.50;11.40;;;;;;;24.04;57.59;100911.42;216090;1274;140344;-71
2022/10/17 12:22:22;;;;;;;13.50;12.00;;;;;;;24.07;57.17;100911.27;215789;1274;140361;-71
2022/10/17 12:27:48;;;;;;;13.90;12.40;;;;;;;23.97;56.86;100905.48;215031;1274;140222;-70
2022/10/17 12:33:21;;;;;;;13.70;11.00;;;;;;;23.90;56.89;100902.52;216106;1273;139985;-69
2022/10/17 12:38:26;;;;;;;;;;;;;;;23.91;57.11;100900.44;215701;1272;139489;-69
2022/10/17 12:43:31;;;;;;;15.10;13.60;;;;;;;23.81;56.75;100900.82;216058;1272;126127;-70
2022/10/17 12:48:35;;;;;;;14.20;12.80;;;;;;;23.65;56.89;100892.05;216224;1273;141116;-70
2022/10/17 12:53:48;;;;;;;13.30;11.70;;;;;;;23.41;56.72;100888.65;216154;1273;140214;-72
2022/10/17 12:58:54;;;;;;;14.40;12.40;;;;;;;23.18;57.13;100884.76;215422;1273;140550;-72
2022/10/17 13:04:04;;;;;;;12.90;11.60;;;;;;;23.14;57.49;100879.96;216162;1273;140156;-72
2022/10/17 13:09:32;;;;;;;17.90;11.90;;;;;;;23.16;57.56;100873.46;216113;1274;139869;-72
2022/10/17 13:14:41;;;;;;;14.10;12.70;;;;;;;23.09;57.65;100871.15;216083;1273;160790;-73
2022/10/17 13:19:51;;;;;;;13.90;10.30;;;;;;;23.02;57.85;100871.70;216114;1272;142718;-73
2022/10/17 13:25:17;;;;;;;13.30;12.00;;;;;;;23.09;57.69;100869.35;216298;1271;140397;-74
2022/10/17 13:30:30;;;;;;;13.60;12.10;;;;;;;23.19;57.69;100870.82;215826;1272;140342;-69
2022/10/17 13:35:37;;;;;;;18.10;12.80;;;;;;;23.16;57.71;100872.92;216092;1272;140822;-70
2022/10/17 13:41:02;;;;;;;18.70;11.60;;;;;;;23.09;57.83;100862.02;216168;1273;143111;-70
2022/10/17 13:46:33;;;;;;;16.30;12.50;;;;;;;22.92;57.64;100864.50;216015;1272;141159;-69
2022/10/17 13:51:46;;;;;;;14.50;11.60;;;;;;;22.74;57.90;100869.84;216026;1272;140306;-76
2022/10/17 13:56:55;;;;;;;13.40;11.50;;;;;;;22.54;58.04;100864.88;216037;1274;140448;-72
2022/10/17 14:02:00;;;;;;;13.60;12.30;;;;;;;22.37;58.27;100851.94;215861;1273;141613;-75
2022/10/17 14:07:06;;;;;;;13.60;11.10;;;;;;;22.18;58.76;100843.58;216057;1273;141409;-70
2022/10/17 14:12:11;;;;;;;13.90;11.60;;;;;;;22.14;59.29;100837.25;215962;1272;140876;-72
2022/10/17 14:17:27;;;;;;;18.40;12.40;;;;;;;22.17;59.15;100835.01;215875;1273;140994;-69
2022/10/17 14:22:34;;;;;;;15.40;11.40;;;;;;;22.17;59.10;100828.16;215902;1272;140091;-73
2022/10/17 14:28:13;;;;;;;17.00;12.80;;;;;;;22.26;59.27;100827.28;215949;1274;140636;-74
2022/10/17 14:33:29;;;;;;;13.30;11.90;;;;;;;22.35;59.46;100829.45;216117;1274;139998;-76
2022/10/17 14:38:34;;;;;;;12.50;11.10;;;;;;;22.29;59.39;100831.71;216079;1272;141406;-75
2022/10/17 14:43:39;;;;;;;13.60;11.90;;;;;;;22.25;59.48;100831.96;216008;1272;141225;-70
2022/10/17 14:48:46;;;;;;;13.20;11.80;;;;;;;22.20;59.52;100832.31;215336;1274;142628;-71
2022/10/17 14:54:03;;;;;;;14.00;11.70;;;;;;;22.13;59.61;100834.01;215205;1271;141355;-72
2022/10/17 14:59:11;;;;;;;17.00;10.70;;;;;;;22.00;59.71;100831.98;215745;1274;139891;-70
2022/10/17 15:04:32;;;;;;;11.70;10.30;;;;;;;21.81;59.64;100834.77;216145;1271;140500;-71
2022/10/17 15:09:35;;;;;;;17.10;11.70;;;;;;;21.63;59.93;100834.86;215180;1271;140672;-71
2022/10/17 15:14:38;;;;;;;18.10;10.90;;;;;;;21.42;60.01;100828.73;214525;1271;140387;-71
2022/10/17 15:19:43;;;;;;;11.90;10.50;;;;;;;21.18;60.40;100830.63;216131;1271;139722;-70
2022/10/17 15:24:47;;;;;;;12.70;11.20;;;;;;;21.02;60.70;100826.80;216039;1271;139574;-73
2022/10/17 15:29:52;;;;;;;14.30;10.50;;;;;;;20.88;60.86;100825.86;214782;1274;141399;-73
2022/10/17 15:34:56;;;;;;;13.50;11.50;;;;;;;20.70;61.01;100826.26;215887;1274;141018;-73
2022/10/17 15:40:00;;;;;;;10.90;9.80;;;;;;;20.46;61.18;100833.56;216041;1274;141366;-73
2022/10/17 15:45:04;;;;;;;14.40;11.00;;;;;;;20.21;61.44;100834.48;215760;1274;140316;-77
2022/10/17 15:50:13;;;;;;;16.40;10.20;;;;;;;20.01;61.81;100833.52;215930;1271;141413;-75
2022/10/17 15:55:17;;;;;;;13.50;11.00;;;;;;;19.83;62.17;100832.58;216086;1273;140734;-77
2022/10/17 16:00:23;;;;;;;12.40;10.70;;;;;;;19.66;62.35;100827.04;215766;1274;141040;-74
2022/10/17 16:05:28;;;;;;;16.90;12.20;;;;;;;19.51;62.76;100821.98;215822;1274;141376;-76
2022/10/17 16:10:32;;;;;;;18.30;12.90;;;;;;;19.37;63.05;100821.80;215963;1272;143047;-72
2022/10/17 16:15:35;;;;;;;17.30;10.90;;;;;;;19.17;63.23;100817.98;215799;1274;140948;-73
2022/10/17 16:20:38;;;;;;;13.90;12.10;;;;;;;18.97;63.38;100817.84;214447;1274;140761;-73
2022/10/17 16:25:42;;;;;;;18.10;13.30;;;;;;;18.80;63.89;100814.20;215547;1274;140063;-72
2022/10/17 16:30:48;;;;;;;17.30;14.00;;;;;;;18.63;64.12;100809.23;216036;1274;140335;-71
2022/10/17 16:35:52;;;;;;;15.20;12.00;;;;;;;18.55;64.51;100809.77;215742;1273;141067;-73
2022/10/17 16:40:58;;;;;;;15.40;13.20;;;;;;;18.47;64.72;100805.56;215699;1274;140499;-74
2022/10/17 16:46:03;;;;;;;24.40;15.20;;;;;;;18.38;64.96;100806.63;216053;1273;140246;-75
2022/10/17 16:51:06;;;;;;;18.20;12.80;;;;;;;18.32;65.33;100809.52;215110;1274;140685;-75
2022/10/17 16:56:14;;;;;;;17.20;13.80;;;;;;;18.21;65.45;100813.85;216048;1273;140671;-75
2022/10/17 17:01:22;;;;;;;19.30;13.60;;;;;;;18.08;65.63;100813.80;214497;1273;140939;-81
2022/10/17 17:06:28;;;;;;;21.50;15.00;;;;;;;17.95;65.90;100811.39;215609;1272;164077;-76
2022/10/17 17:11:36;;;;;;;22.60;16.00;;;;;;;17.86;66.24;100815.20;215447;1271;142456;-73
2022/10/17 17:16:42;;;;;;;16.50;13.90;;;;;;;17.77;66.33;100812.52;215968;1271;141521;-72
2022/10/17 17:21:49;;;;;;;30.20;15.10;;;;;;;17.72;66.57;100816.90;215735;1274;140463;-70
2022/10/17 17:26:55;;;;;;;25.90;14.70;;;;;;;17.64;66.67;100817.95;213879;1274;141270;-77
2022/10/17 17:32:00;;;;;;;16.20;13.70;;;;;;;17.62;67.00;100812.63;215452;1274;209845;-71
2022/10/17 17:37:05;;;;;;;20.60;14.20;;;;;;;17.59;67.03;100813.08;216044;1273;141589;-72
2022/10/17 17:42:10;;;;;;;18.90;14.80;;;;;;;17.56;66.95;100817.58;215859;1273;140633;-72
2022/10/17 17:47:14;;;;;;;17.10;12.80;;;;;;;17.48;67.04;100816.15;215742;1272;252822;-71
2022/10/17 17:52:18;;;;;;;20.80;12.40;;;;;;;17.37;66.99;100814.75;215867;1272;140214;-71
2022/10/17 17:57:23;;;;;;;17.10;13.90;;;;;;;17.29;66.89;100808.67;216032;1272;140622;-70
2022/10/17 18:02:29;;;;;;;15.30;12.30;;;;;;;17.22;67.02;100809.17;216204;1271;140718;-72
2022/10/17 18:07:37;;;;;;;21.50;13.70;;;;;;;17.16;67.11;100806.73;216248;1271;140132;-72
2022/10/17 18:12:42;;;;;;;19.80;13.10;;;;;;;17.09;67.16;100810.66;216131;1271;141601;-70
2022/10/17 18:17:53;;;;;;;23.90;14.50;;;;;;;17.04;67.21;100815.73;216091;1272;141935;-72
2022/10/17 18:22:59;;;;;;;19.00;12.60;;;;;;;17.02;67.23;100813.91;216224;1271;143162;-72
2022/10/17 18:28:07;;;;;;;20.90;14.80;;;;;;;16.95;67.38;100814.36;216300;1273;142912;-71
2022/10/17 18:33:12;;;;;;;27.40;13.70;;;;;;;16.83;67.30;100808.18;216175;1273;141192;-70
2022/10/17 18:38:17;;;;;;;18.70;13.70;;;;;;;16.78;67.46;100806.13;216043;1274;141190;-71
2022/10/17 18:43:20;;;;;;;16.60;11.20;;;;;;;16.70;67.49;100804.02;215989;1273;141802;-70
2022/10/17 18:48:25;;;;;;;17.20;12.40;;;;;;;16.63;67.37;100798.56;215932;1273;141447;-70
2022/10/17 18:53:29;;;;;;;19.40;12.70;;;;;;;16.51;67.34;100796.20;215887;1274;142023;-71
2022/10/17 18:58:35;;;;;;;16.20;12.20;;;;;;;16.40;67.57;100797.07;215858;1274;140935;-71
2022/10/17 19:03:39;;;;;;;15.20;10.40;;;;;;;16.32;67.64;100791.14;215818;1273;139979;-70
2022/10/17 19:08:45;;;;;;;18.50;10.70;;;;;;;16.27;67.72;100785.02;213027;1273;141089;-71
2022/10/17 19:13:51;;;;;;;15.40;9.90;;;;;;;16.21;67.63;100777.79;215979;1273;141451;-68
2022/10/17 19:19:02;;;;;;;16.10;11.60;;;;;;;16.13;67.62;100776.75;215120;1274;140886;-70
2022/10/17 19:24:10;;;;;;;18.30;10.00;;;;;;;16.08;67.76;100763.06;215976;1274;140542;-70
2022/10/17 19:29:15;;;;;;;10.80;8.10;;;;;;;16.06;67.74;100761.90;215998;1274;142329;-71
2022/10/17 19:34:19;;;;;;;14.40;10.40;;;;;;;16.07;67.49;100759.94;215973;1273;141063;-71
2022/10/17 19:39:25;;;;;;;10.00;8.30;;;;;;;16.07;67.44;100764.89;216021;1271;140605;-71
2022/10/17 19:44:29;;;;;;;12.30;8.70;;;;;;;16.06;67.29;100769.71;215724;1271;140968;-71
2022/10/17 19:49:33;;;;;;;9.30;8.20;;;;;;;16.06;67.14;100775.63;216178;1273;209093;-70
2022/10/17 19:54:37;;;;;;;9.60;7.20;;;;;;;16.08;66.99;100781.63;216307;1271;140104;-71
2022/10/17 19:59:41;;;;;;;12.50;9.10;;;;;;;16.08;66.92;100780.50;216155;1271;139574;-71
2022/10/17 20:04:45;;;;;;;8.00;7.00;;;;;;;16.10;66.81;100780.25;216262;1271;141645;-71
2022/10/17 20:10:02;;;;;;;;;;;;;;;16.11;66.70;100780.23;216207;1271;139881;-71
2022/10/17 20:15:06;;;;;;;9.80;7.00;;;;;;;16.06;66.61;100774.55;216997;1271;127592;-70
2022/10/17 20:20:10;;;;;;;8.40;6.40;;;;;;;16.06;66.53;100767.98;216116;1271;140801;-71
2022/10/17 20:25:13;;;;;;;6.90;5.10;;;;;;;16.06;66.32;100764.23;216289;1271;152160;-71
2022/10/17 20:30:17;;;;;;;8.60;7.40;;;;;;;16.04;66.27;100765.00;215864;1271;139555;-70
2022/10/17 20:35:21;;;;;;;9.00;7.10;;;;;;;16.04;66.19;100771.23;216043;1272;140815;-70
2022/10/17 20:40:24;;;;;;;9.00;7.20;;;;;;;16.01;66.06;100774.67;216019;1271;139989;-70
2022/10/17 20:45:44;;;;;;;8.10;6.60;;;;;;;15.97;66.03;100776.54;216048;1271;140096;-71
2022/10/17 20:50:54;;;;;;;10.00;6.20;;;;;;;15.95;66.01;100773.02;216246;1271;140089;-71
2022/10/17 20:56:06;;;;;;;8.20;6.00;;;;;;;15.92;65.90;100770.34;214241;1271;140296;-71
2022/10/17 21:01:09;;;;;;;10.30;6.70;;;;;;;15.89;65.95;100761.73;216138;1271;140440;-72
2022/10/17 21:06:14;;;;;;;12.40;6.60;;;;;;;15.83;65.87;100761.08;215730;1271;140083;-71
2022/10/17 21:11:22;;;;;;;8.50;6.60;;;;;;;15.78;66.00;100757.13;215479;1273;140009;-72
2022/10/17 21:16:28;;;;;;;13.20;6.20;;;;;;;15.77;65.95;100755.16;216015;1272;141064;-72
2022/10/17 21:21:34;;;;;;;8.40;5.90;;;;;;;15.73;65.80;100762.30;215968;1271;161035;-72
2022/10/17 21:26:40;;;;;;;14.20;7.00;;;;;;;15.70;65.85;100762.83;215667;1274;139262;-72
2022/10/17 21:31:45;;;;;;;11.50;5.90;;;;;;;15.66;65.92;100764.73;215993;1274;140283;-72
2022/10/17 21:36:50;;;;;;;10.50;6.20;;;;;;;15.62;65.76;100771.65;216125;1273;139996;-72
2022/10/17 21:41:54;;;;;;;8.40;5.50;;;;;;;15.59;65.75;100774.20;215532;1274;140845;-72
2022/10/17 21:46:58;;;;;;;6.80;6.00;;;;;;;15.55;65.83;100773.27;215807;1274;141110;-72
2022/10/17 21:52:05;;;;;;;7.00;5.80;;;;;;;15.52;65.79;100772.66;215948;1274;140830;-72
2022/10/17 21:57:10;;;;;;;10.30;6.40;;;;;;;15.48;65.70;100767.79;215889;1273;141362;-72
2022/10/17 22:02:15;;;;;;;7.10;6.00;;;;;;;15.43;65.67;100763.39;215956;1274;141435;-71
2022/10/17 22:07:19;;;;;;;9.10;7.10;;;;;;;15.38;65.79;100758.73;216023;1272;140612;-71
2022/10/17 22:12:24;;;;;;;13.50;5.90;;;;;;;15.37;65.78;100767.36;216060;1274;139211;-71
2022/10/17 22:17:28;;;;;;;8.00;6.30;;;;;;;15.34;65.75;100769.30;215872;1273;141102;-71
2022/10/17 22:22:33;;;;;;;7.80;5.80;;;;;;;15.25;65.85;100769.22;215972;1274;141173;-69
2022/10/17 22:27:38;;;;;;;5.90;5.40;;;;;;;15.19;65.75;100769.84;216032;1274;141780;-71
2022/10/17 22:32:42;;;;;;;8.40;7.10;;;;;;;15.11;65.87;100768.89;216104;1274;141468;-70
2022/10/17 22:37:46;;;;;;;17.80;5.90;;;;;;;15.04;65.84;100760.14;216146;1274;140110;-72
2022/10/17 22:42:50;;;;;;;7.00;5.90;;;;;;;14.97;66.06;100762.44;216176;1272;142162;-71
2022/10/17 22:47:53;;;;;;;8.00;5.70;;;;;;;14.87;65.89;100760.73;214278;1274;141131;-72
2022/10/17 22:52:58;;;;;;;9.00;6.60;;;;;;;14.79;66.26;100764.10;215711;1274;141475;-72
2022/10/17 22:58:02;;;;;;;8.40;5.90;;;;;;;14.76;66.23;100765.39;215912;1274;140968;-72